createdAt,value
2017-07-06T00:01:00.144Z,255.0
2017-07-06T00:01:43.655Z,255.0
2017-07-06T00:02:24.515Z,255.0
2017-07-06T00:03:08.520Z,255.0
2017-07-06T00:03:55.204Z,130.9
2017-07-06T00:05:02.290Z,133.4
2017-07-06T00:06:05.044Z,165.0
2017-07-06T00:07:11.196Z,126.9
2017-07-06T00:08:31.806Z,92.9
2017-07-06T00:09:52.336Z,75.0
2017-07-06T00:11:12.555Z,165.0
2017-07-06T00:12:32.851Z,210.0
2017-07-06T00:13:32.348Z,189.3
2017-07-06T00:14:31.172Z,71.0
2017-07-06T00:15:35.835Z,75.0
2017-07-06T00:16:15.959Z,75.0
2017-07-06T00:17:16.586Z,75.0
2017-07-06T00:17:56.927Z,75.0
2017-07-06T00:18:37.919Z,75.0
2017-07-06T00:19:18.455Z,78.4
2017-07-06T00:19:58.901Z,195.2
2017-07-06T00:20:39.334Z,75.0
2017-07-06T00:21:19.693Z,75.0
2017-07-06T00:21:59.962Z,75.0
2017-07-06T00:22:40.311Z,75.0
2017-07-06T00:23:20.533Z,206.6
2017-07-06T00:24:01.066Z,210.0
2017-07-06T00:24:40.996Z,206.0
2017-07-06T00:25:21.526Z,247.0
2017-07-06T00:26:02.180Z,59.4
2017-07-06T00:26:42.761Z,170.4
2017-07-06T00:27:23.199Z,210.0
2017-07-06T00:28:04.346Z,210.0
2017-07-06T00:28:44.388Z,220.6
2017-07-06T00:29:24.433Z,215.4
2017-07-06T00:30:04.673Z,210.0
2017-07-06T00:30:47.519Z,165.4
2017-07-06T00:31:28.252Z,68.8
2017-07-06T00:32:09.124Z,120.3
2017-07-06T00:32:49.588Z,75.0
2017-07-06T00:33:29.929Z,75.0
2017-07-06T00:34:10.350Z,75.0
2017-07-06T00:34:50.707Z,75.0
2017-07-06T00:35:31.231Z,75.0
2017-07-06T00:36:11.784Z,75.0
2017-07-06T00:36:52.117Z,75.0
2017-07-06T00:37:32.561Z,75.0
2017-07-06T00:38:13.408Z,75.0
2017-07-06T00:38:54.104Z,75.0
2017-07-06T00:39:34.564Z,75.0
2017-07-06T00:40:14.612Z,75.0
2017-07-06T00:40:54.953Z,75.0
2017-07-06T00:41:35.164Z,75.0
2017-07-06T00:42:16.107Z,75.0
2017-07-06T00:42:56.035Z,75.0
2017-07-06T00:43:36.272Z,75.0
2017-07-06T00:44:16.501Z,75.0
2017-07-06T00:44:56.446Z,75.0
2017-07-06T00:45:37.060Z,75.0
2017-07-06T00:46:17.585Z,75.0
2017-07-06T00:46:58.138Z,75.0
2017-07-06T00:47:38.678Z,75.0
2017-07-06T00:48:18.929Z,84.0
2017-07-06T00:48:59.359Z,255.0
2017-07-06T00:49:39.607Z,255.0
2017-07-06T00:50:19.936Z,255.0
2017-07-06T00:51:00.082Z,255.0
2017-07-06T00:51:41.113Z,255.0
2017-07-06T00:52:21.538Z,255.0
2017-07-06T00:53:01.870Z,255.0
2017-07-06T00:53:41.805Z,255.0
2017-07-06T00:54:22.438Z,255.0
2017-07-06T00:55:02.771Z,255.0
2017-07-06T00:55:43.404Z,255.0
2017-07-06T00:56:23.826Z,255.0
2017-07-06T00:57:04.255Z,255.0
2017-07-06T00:57:44.483Z,255.0
2017-07-06T00:58:24.849Z,255.0
2017-07-06T00:59:05.066Z,255.0
2017-07-06T00:59:45.574Z,255.0
2017-07-06T01:00:26.381Z,255.0
2017-07-06T01:01:06.926Z,255.0
2017-07-06T01:01:47.164Z,255.0
2017-07-06T01:02:27.891Z,255.0
2017-07-06T01:03:07.828Z,255.0
2017-07-06T01:03:48.052Z,255.0
2017-07-06T01:04:28.188Z,255.0
2017-07-06T01:05:09.356Z,255.0
2017-07-06T01:05:49.607Z,215.5
2017-07-06T01:06:30.222Z,210.0
2017-07-06T01:07:10.557Z,210.0
2017-07-06T01:07:51.007Z,210.0
2017-07-06T01:08:31.241Z,210.0
2017-07-06T01:09:11.667Z,210.0
2017-07-06T01:09:51.694Z,210.0
2017-07-06T01:10:32.323Z,210.0
2017-07-06T01:11:12.455Z,210.0
2017-07-06T01:11:52.874Z,210.0
2017-07-06T01:12:33.202Z,210.0
2017-07-06T01:13:13.743Z,170.6
2017-07-06T01:13:54.282Z,30.0
2017-07-06T01:14:34.816Z,30.0
2017-07-06T01:15:15.432Z,30.0
2017-07-06T01:15:55.671Z,30.0
2017-07-06T01:16:36.040Z,30.0
2017-07-06T01:17:16.158Z,30.0
2017-07-06T01:17:56.792Z,30.0
2017-07-06T01:18:36.831Z,30.0
2017-07-06T01:19:17.381Z,30.0
2017-07-06T01:19:57.621Z,30.0
2017-07-06T01:20:37.746Z,30.0
2017-07-06T01:21:18.370Z,30.0
2017-07-06T01:21:58.407Z,187.3
2017-07-06T01:22:38.440Z,210.0
2017-07-06T01:23:18.478Z,210.0
2017-07-06T01:23:58.606Z,210.0
2017-07-06T01:24:39.136Z,210.0
2017-07-06T01:25:19.494Z,210.0
2017-07-06T01:25:59.922Z,210.0
2017-07-06T01:26:40.462Z,210.0
2017-07-06T01:27:20.812Z,210.0
2017-07-06T01:28:01.571Z,210.0
2017-07-06T01:28:42.213Z,210.0
2017-07-06T01:29:22.778Z,210.0
2017-07-06T01:30:03.224Z,203.8
2017-07-06T01:30:43.826Z,30.0
2017-07-06T01:31:24.019Z,30.0
2017-07-06T01:32:03.956Z,30.0
2017-07-06T01:32:44.585Z,30.0
2017-07-06T01:33:24.809Z,30.0
2017-07-06T01:34:05.243Z,251.8
2017-07-06T01:34:45.581Z,236.3
2017-07-06T01:35:25.814Z,210.0
2017-07-06T01:36:06.526Z,210.0
2017-07-06T01:36:46.955Z,216.8
2017-07-06T01:37:27.017Z,255.0
2017-07-06T01:38:07.554Z,255.0
2017-07-06T01:38:48.081Z,255.0
2017-07-06T01:39:28.232Z,255.0
2017-07-06T01:40:08.767Z,255.0
2017-07-06T01:40:48.801Z,255.0
2017-07-06T01:41:29.330Z,255.0
2017-07-06T01:42:09.881Z,255.0
2017-07-06T01:42:50.805Z,255.0
2017-07-06T01:43:30.734Z,255.0
2017-07-06T01:44:11.080Z,255.0
2017-07-06T01:44:51.607Z,255.0
2017-07-06T01:45:32.137Z,255.0
2017-07-06T01:46:12.469Z,255.0
2017-07-06T01:46:52.494Z,255.0
2017-07-06T01:47:32.918Z,255.0
2017-07-06T01:48:13.158Z,255.0
2017-07-06T01:48:53.677Z,255.0
2017-07-06T01:49:34.050Z,255.0
2017-07-06T01:50:14.371Z,255.0
2017-07-06T01:50:55.226Z,255.0
2017-07-06T01:51:35.675Z,255.0
2017-07-06T01:52:16.021Z,255.0
2017-07-06T01:52:56.448Z,255.0
2017-07-06T01:53:36.576Z,255.0
2017-07-06T01:54:17.109Z,255.0
2017-07-06T01:54:57.653Z,255.0
2017-07-06T01:55:37.876Z,255.0
2017-07-06T01:56:18.521Z,255.0
2017-07-06T01:56:58.556Z,255.0
2017-07-06T01:57:39.112Z,255.0
2017-07-06T01:58:19.755Z,255.0
2017-07-06T01:59:00.391Z,255.0
2017-07-06T01:59:40.739Z,255.0
2017-07-06T02:00:20.969Z,255.0
2017-07-06T02:01:01.213Z,255.0
2017-07-06T02:01:41.735Z,255.0
2017-07-06T02:02:22.572Z,255.0
2017-07-06T02:03:02.815Z,255.0
2017-07-06T02:03:43.362Z,255.0
2017-07-06T02:04:23.707Z,255.0
2017-07-06T02:05:04.439Z,255.0
2017-07-06T02:05:44.777Z,255.0
2017-07-06T02:06:25.312Z,255.0
2017-07-06T02:07:05.351Z,255.0
2017-07-06T02:07:45.475Z,255.0
2017-07-06T02:08:25.928Z,255.0
2017-07-06T02:09:06.371Z,255.0
2017-07-06T02:09:46.423Z,255.0
2017-07-06T02:10:26.265Z,255.0
2017-07-06T02:11:06.693Z,255.0
2017-07-06T02:11:47.428Z,255.0
2017-07-06T02:12:28.379Z,255.0
2017-07-06T02:13:08.714Z,255.0
2017-07-06T02:13:49.451Z,218.9
2017-07-06T02:14:30.166Z,210.0
2017-07-06T02:15:10.567Z,210.0
2017-07-06T02:15:51.295Z,210.0
2017-07-06T02:16:31.663Z,210.0
2017-07-06T02:17:12.176Z,210.0
2017-07-06T02:17:52.698Z,210.0
2017-07-06T02:18:33.225Z,210.0
2017-07-06T02:19:13.266Z,210.0
2017-07-06T02:19:53.902Z,210.0
2017-07-06T02:20:34.642Z,210.0
2017-07-06T02:21:15.323Z,210.0
2017-07-06T02:21:55.476Z,210.0
2017-07-06T02:22:35.799Z,210.0
2017-07-06T02:23:16.257Z,210.0
2017-07-06T02:23:56.896Z,210.0
2017-07-06T02:24:37.646Z,210.0
2017-07-06T02:25:17.671Z,210.0
2017-07-06T02:25:58.319Z,210.0
2017-07-06T02:26:38.909Z,210.0
2017-07-06T02:27:19.435Z,210.0
2017-07-06T02:27:59.776Z,210.0
2017-07-06T02:28:39.899Z,210.0
2017-07-06T02:29:20.328Z,210.0
2017-07-06T02:30:00.347Z,207.9
2017-07-06T02:30:40.476Z,165.0
2017-07-06T02:31:21.011Z,165.0
2017-07-06T02:32:01.449Z,165.0
2017-07-06T02:32:41.908Z,165.0
2017-07-06T02:33:22.050Z,165.0
2017-07-06T02:34:02.397Z,165.0
2017-07-06T02:34:42.738Z,165.0
2017-07-06T02:35:22.876Z,165.0
2017-07-06T02:36:03.119Z,165.0
2017-07-06T02:36:43.455Z,165.0
2017-07-06T02:37:23.897Z,165.0
2017-07-06T02:38:04.625Z,165.0
2017-07-06T02:38:44.961Z,165.0
2017-07-06T02:39:25.309Z,165.0
2017-07-06T02:40:05.542Z,165.0
2017-07-06T02:40:45.684Z,165.0
2017-07-06T02:41:25.689Z,165.0
2017-07-06T02:42:05.332Z,165.0
2017-07-06T02:42:45.270Z,165.0
2017-07-06T02:43:25.409Z,165.0
2017-07-06T02:44:06.057Z,165.0
2017-07-06T02:44:46.792Z,165.0
2017-07-06T02:45:27.270Z,165.0
2017-07-06T02:46:07.910Z,165.0
2017-07-06T02:46:48.326Z,165.0
2017-07-06T02:47:29.063Z,165.0
2017-07-06T02:48:09.294Z,165.0
2017-07-06T02:48:49.521Z,165.0
2017-07-06T02:49:29.768Z,165.0
2017-07-06T02:50:10.088Z,165.0
2017-07-06T02:50:50.326Z,165.0
2017-07-06T02:51:30.673Z,165.0
2017-07-06T02:52:11.209Z,165.0
2017-07-06T02:52:51.358Z,165.0
2017-07-06T02:53:31.791Z,165.0
2017-07-06T02:54:12.047Z,165.0
2017-07-06T02:54:53.150Z,165.0
2017-07-06T02:55:34.172Z,165.0
2017-07-06T02:56:15.250Z,165.0
2017-07-06T02:56:56.102Z,165.0
2017-07-06T02:57:36.367Z,165.0
2017-07-06T02:58:16.494Z,165.0
2017-07-06T02:58:56.223Z,165.0
2017-07-06T02:59:36.162Z,165.0
2017-07-06T03:00:16.946Z,165.0
2017-07-06T03:00:57.572Z,165.0
2017-07-06T03:01:38.299Z,165.0
2017-07-06T03:02:18.955Z,165.0
2017-07-06T03:02:59.594Z,165.0
2017-07-06T03:03:40.355Z,165.0
2017-07-06T03:04:20.935Z,165.0
2017-07-06T03:05:01.383Z,165.0
2017-07-06T03:05:41.647Z,165.0
2017-07-06T03:06:21.888Z,165.0
2017-07-06T03:07:02.085Z,165.0
2017-07-06T03:07:42.543Z,165.0
2017-07-06T03:08:22.687Z,165.0
2017-07-06T03:09:03.233Z,165.0
2017-07-06T03:09:44.020Z,165.0
2017-07-06T03:10:24.568Z,165.0
2017-07-06T03:11:05.091Z,165.0
2017-07-06T03:11:45.768Z,165.0
2017-07-06T03:12:25.896Z,165.0
2017-07-06T03:13:06.136Z,165.0
2017-07-06T03:13:46.773Z,165.0
2017-07-06T03:14:26.906Z,165.0
2017-07-06T03:15:07.771Z,165.0
2017-07-06T03:15:48.862Z,165.0
2017-07-06T03:16:29.135Z,165.0
2017-07-06T03:17:09.752Z,165.0
2017-07-06T03:17:49.798Z,165.0
2017-07-06T03:18:30.360Z,165.0
2017-07-06T03:19:10.787Z,165.0
2017-07-06T03:19:51.220Z,165.0
2017-07-06T03:20:32.161Z,165.0
2017-07-06T03:21:12.489Z,165.0
2017-07-06T03:21:52.839Z,165.0
2017-07-06T03:22:33.020Z,165.0
2017-07-06T03:23:13.301Z,165.0
2017-07-06T03:23:53.649Z,165.0
2017-07-06T03:24:33.980Z,165.0
2017-07-06T03:25:14.426Z,165.0
2017-07-06T03:25:54.996Z,165.0
2017-07-06T03:26:35.236Z,165.0
2017-07-06T03:27:15.379Z,165.0
2017-07-06T03:27:55.532Z,165.0
2017-07-06T03:28:35.775Z,165.0
2017-07-06T03:29:15.841Z,165.0
2017-07-06T03:29:56.689Z,165.0
2017-07-06T03:30:37.238Z,165.0
2017-07-06T03:31:17.916Z,165.0
2017-07-06T03:31:58.451Z,165.0
2017-07-06T03:32:39.089Z,165.0
2017-07-06T03:33:19.435Z,165.0
2017-07-06T03:33:59.465Z,165.0
2017-07-06T03:34:39.598Z,165.0
2017-07-06T03:35:19.875Z,165.0
2017-07-06T03:36:00.526Z,165.0
2017-07-06T03:36:41.418Z,165.0
2017-07-06T03:37:21.653Z,165.0
2017-07-06T03:38:02.115Z,165.0
2017-07-06T03:38:42.452Z,165.0
2017-07-06T03:39:22.993Z,165.0
2017-07-06T03:40:02.922Z,165.0
2017-07-06T03:40:43.288Z,165.0
2017-07-06T03:41:23.746Z,165.0
2017-07-06T03:42:04.576Z,165.0
2017-07-06T03:42:44.822Z,165.0
2017-07-06T03:43:25.636Z,165.0
2017-07-06T03:44:05.879Z,165.0
2017-07-06T03:44:46.116Z,165.0
2017-07-06T03:45:26.426Z,165.0
2017-07-06T03:46:06.764Z,165.0
2017-07-06T03:46:47.203Z,165.0
2017-07-06T03:47:27.626Z,165.0
2017-07-06T03:48:07.953Z,165.0
2017-07-06T03:48:48.700Z,165.0
2017-07-06T03:49:28.570Z,165.0
2017-07-06T03:50:08.602Z,165.0
2017-07-06T03:50:49.590Z,165.0
2017-07-06T03:51:30.027Z,165.0
2017-07-06T03:52:10.277Z,165.0
2017-07-06T03:52:50.518Z,165.0
2017-07-06T03:53:30.955Z,165.0
2017-07-06T03:54:11.185Z,165.0
2017-07-06T03:54:51.404Z,165.0
2017-07-06T03:55:31.638Z,165.0
2017-07-06T03:56:12.082Z,165.0
2017-07-06T03:56:52.321Z,165.0
2017-07-06T03:57:32.861Z,165.0
2017-07-06T03:58:13.392Z,165.0
2017-07-06T03:58:53.941Z,165.0
2017-07-06T03:59:34.471Z,165.0
2017-07-06T04:00:15.516Z,165.0
2017-07-06T04:00:55.658Z,165.0
2017-07-06T04:01:36.396Z,165.0
2017-07-06T04:02:16.947Z,165.0
2017-07-06T04:02:57.575Z,165.0
2017-07-06T04:03:37.818Z,165.0
2017-07-06T04:04:18.146Z,165.0
2017-07-06T04:04:58.272Z,165.0
2017-07-06T04:05:38.404Z,165.0
2017-07-06T04:06:18.448Z,165.0
2017-07-06T04:06:58.772Z,165.0
2017-07-06T04:07:39.307Z,165.0
2017-07-06T04:08:19.537Z,165.0
2017-07-06T04:09:00.063Z,165.0
2017-07-06T04:09:40.307Z,165.0
2017-07-06T04:10:20.646Z,165.0
2017-07-06T04:11:00.971Z,165.0
2017-07-06T04:11:41.204Z,165.0
2017-07-06T04:12:21.633Z,215.4
2017-07-06T04:13:01.767Z,249.6
2017-07-06T04:13:41.695Z,210.0
2017-07-06T04:14:22.037Z,210.0
2017-07-06T04:15:01.969Z,210.0
2017-07-06T04:15:42.308Z,210.0
2017-07-06T04:16:22.434Z,210.0
2017-07-06T04:17:02.870Z,210.0
2017-07-06T04:17:43.106Z,187.0
2017-07-06T04:18:23.829Z,187.0
2017-07-06T04:19:03.965Z,187.0
2017-07-06T04:19:44.593Z,165.0
2017-07-06T04:20:25.130Z,165.0
2017-07-06T04:21:05.655Z,167.0
2017-07-06T04:21:45.889Z,210.0
2017-07-06T04:22:26.525Z,210.0
2017-07-06T04:23:07.055Z,196.6
2017-07-06T04:23:47.307Z,154.4
2017-07-06T04:24:27.352Z,30.0
2017-07-06T04:25:07.882Z,30.0
2017-07-06T04:25:48.414Z,30.0
2017-07-06T04:26:28.657Z,285.2
2017-07-06T04:27:08.389Z,214.0
2017-07-06T04:27:48.523Z,210.0
2017-07-06T04:28:28.876Z,210.0
2017-07-06T04:29:09.197Z,210.0
2017-07-06T04:29:49.642Z,210.0
2017-07-06T04:30:29.680Z,210.0
2017-07-06T04:31:09.716Z,222.6
2017-07-06T04:31:49.910Z,0.8
2017-07-06T04:32:30.190Z,165.0
2017-07-06T04:33:10.623Z,165.0
2017-07-06T04:33:50.951Z,208.6
2017-07-06T04:34:31.100Z,165.0
2017-07-06T04:35:11.434Z,165.0
2017-07-06T04:35:51.659Z,165.0
2017-07-06T04:36:31.955Z,165.0
2017-07-06T04:37:12.694Z,210.0
2017-07-06T04:37:53.522Z,210.0
2017-07-06T04:38:34.156Z,210.0
2017-07-06T04:39:14.194Z,210.0
2017-07-06T04:39:54.428Z,210.0
2017-07-06T04:40:34.463Z,210.0
2017-07-06T04:41:14.703Z,210.0
2017-07-06T04:41:54.746Z,210.0
2017-07-06T04:42:34.984Z,210.0
2017-07-06T04:43:15.243Z,210.0
2017-07-06T04:43:55.882Z,210.0
2017-07-06T04:44:36.029Z,210.0
2017-07-06T04:45:16.079Z,210.0
2017-07-06T04:45:56.639Z,188.4
2017-07-06T04:46:36.721Z,188.3
2017-07-06T04:47:17.049Z,210.0
2017-07-06T04:47:56.970Z,210.0
2017-07-06T04:48:36.615Z,210.0
2017-07-06T04:49:16.678Z,203.1
2017-07-06T04:49:57.029Z,210.0
2017-07-06T04:50:37.389Z,210.0
2017-07-06T04:51:18.026Z,210.0
2017-07-06T04:51:58.471Z,210.0
2017-07-06T04:52:38.721Z,210.0
2017-07-06T04:53:19.074Z,210.0
2017-07-06T04:53:59.216Z,210.0
2017-07-06T04:54:39.765Z,210.0
2017-07-06T04:55:20.518Z,210.0
2017-07-06T04:56:01.085Z,239.4
2017-07-06T04:56:41.018Z,255.0
2017-07-06T04:57:21.373Z,255.0
2017-07-06T04:58:01.497Z,255.0
2017-07-06T04:58:42.065Z,255.0
2017-07-06T04:59:22.201Z,255.0
2017-07-06T05:00:02.338Z,255.0
2017-07-06T05:00:43.009Z,255.0
2017-07-06T05:01:23.801Z,255.0
2017-07-06T05:02:04.139Z,115.8
2017-07-06T05:02:44.764Z,63.1
2017-07-06T05:03:24.899Z,240.9
2017-07-06T05:04:05.107Z,182.6
2017-07-06T05:04:45.397Z,112.5
2017-07-06T05:05:25.774Z,120.0
2017-07-06T05:06:06.225Z,67.1
2017-07-06T05:06:46.676Z,173.4
2017-07-06T05:07:27.407Z,92.6
2017-07-06T05:08:08.053Z,150.1
2017-07-06T05:08:48.182Z,165.0
2017-07-06T05:09:28.698Z,165.0
2017-07-06T05:10:09.133Z,165.0
2017-07-06T05:10:49.877Z,165.0
2017-07-06T05:11:30.223Z,165.0
2017-07-06T05:12:10.670Z,165.0
2017-07-06T05:12:51.203Z,165.0
2017-07-06T05:13:31.138Z,165.0
2017-07-06T05:14:11.679Z,165.0
2017-07-06T05:14:52.030Z,168.7
2017-07-06T05:15:32.665Z,128.4
2017-07-06T05:16:12.891Z,165.0
2017-07-06T05:16:53.023Z,184.3
2017-07-06T05:17:33.863Z,187.7
2017-07-06T05:18:14.295Z,120.0
2017-07-06T05:18:54.941Z,144.2
2017-07-06T05:19:34.877Z,210.0
2017-07-06T05:20:14.836Z,208.1
2017-07-06T05:20:55.588Z,231.9
2017-07-06T05:21:36.034Z,162.1
2017-07-06T05:22:16.573Z,75.0
2017-07-06T05:22:57.013Z,108.9
2017-07-06T05:23:36.975Z,120.0
2017-07-06T05:24:17.507Z,120.0
2017-07-06T05:24:57.881Z,120.0
2017-07-06T05:25:38.318Z,120.0
2017-07-06T05:26:19.096Z,120.0
2017-07-06T05:26:59.436Z,120.0
2017-07-06T05:27:39.926Z,120.0
2017-07-06T05:28:20.338Z,120.0
2017-07-06T05:29:00.983Z,120.0
2017-07-06T05:29:41.337Z,210.0
2017-07-06T05:30:21.921Z,227.2
2017-07-06T05:31:02.433Z,255.0
2017-07-06T05:31:43.205Z,255.0
2017-07-06T05:32:23.405Z,255.0
2017-07-06T05:33:03.348Z,255.0
2017-07-06T05:33:44.420Z,210.0
2017-07-06T05:34:24.944Z,210.0
2017-07-06T05:35:05.354Z,198.1
2017-07-06T05:35:46.468Z,165.0
2017-07-06T05:36:27.497Z,165.0
2017-07-06T05:37:08.766Z,207.3
2017-07-06T05:37:49.459Z,210.0
2017-07-06T05:38:30.076Z,63.8
2017-07-06T05:39:10.431Z,199.9
2017-07-06T05:39:50.710Z,83.3
2017-07-06T05:40:31.059Z,83.5
2017-07-06T05:41:11.773Z,42.3
2017-07-06T05:41:52.470Z,30.0
2017-07-06T05:42:33.335Z,30.0
2017-07-06T05:43:13.755Z,204.3
2017-07-06T05:43:54.507Z,210.0
2017-07-06T05:44:34.961Z,173.3
2017-07-06T05:45:15.423Z,165.0
2017-07-06T05:45:56.290Z,165.0
2017-07-06T05:46:36.683Z,165.0
2017-07-06T05:47:17.240Z,85.0
2017-07-06T05:47:58.205Z,120.0
2017-07-06T05:48:38.753Z,120.0
2017-07-06T05:49:18.895Z,120.0
2017-07-06T05:49:59.052Z,120.0
2017-07-06T05:50:39.099Z,171.4
2017-07-06T05:51:19.362Z,210.0
2017-07-06T05:51:59.656Z,210.0
2017-07-06T05:52:40.183Z,210.0
2017-07-06T05:53:20.645Z,300.0
2017-07-06T05:54:01.165Z,255.0
2017-07-06T05:54:41.900Z,237.4
2017-07-06T05:55:22.680Z,210.0
2017-07-06T05:56:03.216Z,210.0
2017-07-06T05:56:43.858Z,66.4
2017-07-06T05:57:23.786Z,120.0
2017-07-06T05:58:04.224Z,120.0
2017-07-06T05:58:44.858Z,120.0
2017-07-06T05:59:24.994Z,106.8
2017-07-06T06:00:05.533Z,97.5
2017-07-06T06:00:45.677Z,210.0
2017-07-06T06:01:25.737Z,282.5
2017-07-06T06:02:05.895Z,120.0
2017-07-06T06:02:46.148Z,137.2
2017-07-06T06:03:26.478Z,115.3
2017-07-06T06:04:06.902Z,128.4
2017-07-06T06:04:47.327Z,57.8
2017-07-06T06:05:27.864Z,77.2
2017-07-06T06:06:08.307Z,141.0
2017-07-06T06:06:48.851Z,169.0
2017-07-06T06:07:29.392Z,222.8
2017-07-06T06:08:09.734Z,75.0
2017-07-06T06:08:50.171Z,73.0
2017-07-06T06:09:30.557Z,43.3
2017-07-06T06:10:11.397Z,54.0
2017-07-06T06:10:51.735Z,30.0
2017-07-06T06:11:32.474Z,165.0
2017-07-06T06:12:13.030Z,165.0
2017-07-06T06:12:53.472Z,165.0
2017-07-06T06:13:34.301Z,165.0
2017-07-06T06:14:14.547Z,165.0
2017-07-06T06:14:54.992Z,39.9
2017-07-06T06:15:35.132Z,358.6
2017-07-06T06:16:15.765Z,43.9
2017-07-06T06:16:56.307Z,68.6
2017-07-06T06:17:36.796Z,66.7
2017-07-06T06:18:17.266Z,70.3
2017-07-06T06:18:57.719Z,48.0
2017-07-06T06:19:37.645Z,57.6
2017-07-06T06:20:17.587Z,79.1
2017-07-06T06:20:58.349Z,210.0
2017-07-06T06:21:38.813Z,210.0
2017-07-06T06:22:19.447Z,26.7
2017-07-06T06:22:59.687Z,102.6
2017-07-06T06:23:40.325Z,83.4
2017-07-06T06:24:20.534Z,66.2
2017-07-06T06:25:01.079Z,61.0
2017-07-06T06:25:41.309Z,65.4
2017-07-06T06:26:21.448Z,178.7
2017-07-06T06:27:01.581Z,59.4
2017-07-06T06:27:42.117Z,181.4
2017-07-06T06:28:22.367Z,94.8
2017-07-06T06:29:02.913Z,72.9
2017-07-06T06:29:43.658Z,68.8
2017-07-06T06:30:23.902Z,63.4
2017-07-06T06:31:04.345Z,30.0
2017-07-06T06:31:44.496Z,52.8
2017-07-06T06:32:24.864Z,59.9
2017-07-06T06:33:05.543Z,40.7
2017-07-06T06:33:46.078Z,68.2
2017-07-06T06:34:26.526Z,25.1
2017-07-06T06:35:06.575Z,36.2
2017-07-06T06:35:47.121Z,57.8
2017-07-06T06:36:27.978Z,258.4
2017-07-06T06:37:08.848Z,38.6
2017-07-06T06:37:49.091Z,41.4
2017-07-06T06:38:29.620Z,72.0
2017-07-06T06:39:09.769Z,89.4
2017-07-06T06:39:50.001Z,36.1
2017-07-06T06:40:30.754Z,87.1
2017-07-06T06:41:11.315Z,135.3
2017-07-06T06:41:51.966Z,255.0
2017-07-06T06:42:31.797Z,222.1
2017-07-06T06:43:11.950Z,210.0
2017-07-06T06:43:51.990Z,301.5
2017-07-06T06:44:32.425Z,75.0
2017-07-06T06:45:12.771Z,78.7
2017-07-06T06:45:53.116Z,21.7
2017-07-06T06:46:33.462Z,108.1
2017-07-06T06:47:13.814Z,37.5
2017-07-06T06:47:54.368Z,36.1
2017-07-06T06:48:34.905Z,46.6
2017-07-06T06:49:15.659Z,59.4
2017-07-06T06:49:55.598Z,57.9
2017-07-06T06:50:36.345Z,68.6
2017-07-06T06:51:16.599Z,104.6
2017-07-06T06:51:57.354Z,86.7
2017-07-06T06:52:37.215Z,53.7
2017-07-06T06:53:17.561Z,67.1
2017-07-06T06:53:57.901Z,86.8
2017-07-06T06:54:38.145Z,43.5
2017-07-06T06:55:18.780Z,74.4
2017-07-06T06:55:59.223Z,64.5
2017-07-06T06:56:39.896Z,49.5
2017-07-06T06:57:20.350Z,67.4
2017-07-06T06:58:00.686Z,57.8
2017-07-06T06:58:41.431Z,97.3
2017-07-06T06:59:21.473Z,49.1
2017-07-06T07:00:01.619Z,34.6
2017-07-06T07:00:42.071Z,30.6
2017-07-06T07:01:22.024Z,36.8
2017-07-06T07:02:02.046Z,54.0
2017-07-06T07:02:42.394Z,47.4
2017-07-06T07:03:22.729Z,68.9
2017-07-06T07:04:02.971Z,68.3
2017-07-06T07:04:42.908Z,51.6
2017-07-06T07:05:22.766Z,58.6
2017-07-06T07:06:03.207Z,133.1
2017-07-06T07:06:43.443Z,30.0
2017-07-06T07:07:23.590Z,70.0
2017-07-06T07:08:03.740Z,17.6
2017-07-06T07:08:44.003Z,163.7
2017-07-06T07:09:24.357Z,54.8
2017-07-06T07:10:05.223Z,48.5
2017-07-06T07:10:45.517Z,52.2
2017-07-06T07:11:25.660Z,49.8
2017-07-06T07:12:05.911Z,66.7
2017-07-06T07:12:46.164Z,55.6
2017-07-06T07:13:25.999Z,70.7
2017-07-06T07:14:06.236Z,74.3
2017-07-06T07:14:46.582Z,59.4
2017-07-06T07:15:27.076Z,67.3
2017-07-06T07:16:07.425Z,118.1
2017-07-06T07:16:47.370Z,221.6
2017-07-06T07:17:28.014Z,210.7
2017-07-06T07:18:08.254Z,158.5
2017-07-06T07:18:48.711Z,143.8
2017-07-06T07:19:28.943Z,59.8
2017-07-06T07:20:09.181Z,67.4
2017-07-06T07:20:49.640Z,78.7
2017-07-06T07:21:30.186Z,92.9
2017-07-06T07:22:10.627Z,117.2
2017-07-06T07:22:50.980Z,6.9
2017-07-06T07:23:31.627Z,67.1
2017-07-06T07:24:11.977Z,71.6
2017-07-06T07:24:52.523Z,63.4
2017-07-06T07:25:33.064Z,62.3
2017-07-06T07:26:13.094Z,130.0
2017-07-06T07:26:53.549Z,213.3
2017-07-06T07:27:33.804Z,107.8
2017-07-06T07:28:13.951Z,88.8
2017-07-06T07:28:54.090Z,93.3
2017-07-06T07:29:34.142Z,86.5
2017-07-06T07:30:14.678Z,57.3
2017-07-06T07:30:55.318Z,37.5
2017-07-06T07:31:35.760Z,44.6
2017-07-06T07:32:16.107Z,66.0
2017-07-06T07:32:56.146Z,120.0
2017-07-06T07:33:36.597Z,148.6
2017-07-06T07:34:17.139Z,212.2
2017-07-06T07:34:57.287Z,56.1
2017-07-06T07:35:37.542Z,138.1
2017-07-06T07:36:18.092Z,93.7
2017-07-06T07:36:58.734Z,66.8
2017-07-06T07:37:39.386Z,83.0
2017-07-06T07:38:19.955Z,100.5
2017-07-06T07:39:00.708Z,184.5
2017-07-06T07:39:40.862Z,255.0
2017-07-06T07:40:21.012Z,257.8
2017-07-06T07:41:01.676Z,72.2
2017-07-06T07:41:42.322Z,51.0
2017-07-06T07:42:22.757Z,68.5
2017-07-06T07:43:03.310Z,35.2
2017-07-06T07:43:43.748Z,84.8
2017-07-06T07:44:23.897Z,75.0
2017-07-06T07:45:04.466Z,60.5
2017-07-06T07:45:44.503Z,80.0
2017-07-06T07:46:24.958Z,65.3
2017-07-06T07:47:05.599Z,90.9
2017-07-06T07:47:45.650Z,87.8
2017-07-06T07:48:25.506Z,53.8
2017-07-06T07:49:05.753Z,51.4
2017-07-06T07:49:46.188Z,48.9
2017-07-06T07:50:26.735Z,128.4
2017-07-06T07:51:07.167Z,83.7
2017-07-06T07:51:47.616Z,30.4
2017-07-06T07:52:27.961Z,147.8
2017-07-06T07:53:08.403Z,83.4
2017-07-06T07:53:50.153Z,112.5
2017-07-06T07:54:30.295Z,39.0
2017-07-06T07:55:10.636Z,66.4
2017-07-06T07:55:50.515Z,74.7
2017-07-06T07:56:32.723Z,83.1
2017-07-06T07:57:13.387Z,57.8
2017-07-06T07:57:53.806Z,64.5
2017-07-06T07:58:34.054Z,47.3
2017-07-06T07:59:14.296Z,49.5
2017-07-06T07:59:54.644Z,127.3
2017-07-06T08:00:35.188Z,135.8
2017-07-06T08:01:15.132Z,113.3
2017-07-06T08:01:55.483Z,88.7
2017-07-06T08:02:36.614Z,49.8
2017-07-06T08:03:17.457Z,71.7
2017-07-06T08:03:57.498Z,42.0
2017-07-06T08:04:37.743Z,79.2
2017-07-06T08:05:18.202Z,75.7
2017-07-06T08:05:58.752Z,255.0
2017-07-06T08:06:39.315Z,257.5
2017-07-06T08:07:19.766Z,128.6
2017-07-06T08:08:00.026Z,185.0
2017-07-06T08:08:40.373Z,42.0
2017-07-06T08:09:20.516Z,54.5
2017-07-06T08:10:01.187Z,137.0
2017-07-06T08:10:41.932Z,134.9
2017-07-06T08:11:22.196Z,146.2
2017-07-06T08:12:02.774Z,315.9
2017-07-06T08:12:43.023Z,188.9
2017-07-06T08:13:23.273Z,262.5
2017-07-06T08:14:03.712Z,58.5
2017-07-06T08:14:43.959Z,31.2
2017-07-06T08:15:24.698Z,39.8
2017-07-06T08:16:05.370Z,67.7
2017-07-06T08:16:45.925Z,200.3
2017-07-06T08:17:26.566Z,89.3
2017-07-06T08:18:06.823Z,202.0
2017-07-06T08:18:47.080Z,203.0
2017-07-06T08:19:27.649Z,210.0
2017-07-06T08:20:08.092Z,122.7
2017-07-06T08:20:48.445Z,210.0
2017-07-06T08:21:28.996Z,259.3
2017-07-06T08:22:09.235Z,96.2
2017-07-06T08:22:49.691Z,14.2
2017-07-06T08:23:30.133Z,110.6
2017-07-06T08:24:10.995Z,72.1
2017-07-06T08:24:51.356Z,221.2
2017-07-06T08:25:32.122Z,102.8
2017-07-06T08:26:12.570Z,234.7
2017-07-06T08:26:53.309Z,42.6
2017-07-06T08:27:33.563Z,113.5
2017-07-06T08:28:13.703Z,57.7
2017-07-06T08:28:54.244Z,94.8
2017-07-06T08:29:34.582Z,44.1
2017-07-06T08:30:15.430Z,52.3
2017-07-06T08:30:55.897Z,47.1
2017-07-06T08:31:36.059Z,214.8
2017-07-06T08:32:16.402Z,80.3
2017-07-06T08:32:56.847Z,50.2
2017-07-06T08:33:37.211Z,54.7
2017-07-06T08:34:17.964Z,255.9
2017-07-06T08:34:58.022Z,91.0
2017-07-06T08:35:38.589Z,86.9
2017-07-06T08:36:18.845Z,140.1
2017-07-06T08:36:59.406Z,223.3
2017-07-06T08:37:39.750Z,66.6
2017-07-06T08:38:20.210Z,50.7
2017-07-06T08:39:00.659Z,41.7
2017-07-06T08:39:40.706Z,259.2
2017-07-06T08:40:20.855Z,234.8
2017-07-06T08:41:01.399Z,257.0
2017-07-06T08:41:41.749Z,219.0
2017-07-06T08:42:21.995Z,199.1
2017-07-06T08:43:02.062Z,144.1
2017-07-06T08:43:42.404Z,250.8
2017-07-06T08:44:23.148Z,71.3
2017-07-06T08:45:03.588Z,37.5
2017-07-06T08:45:44.058Z,30.0
2017-07-06T08:46:24.213Z,175.5
2017-07-06T08:47:04.977Z,210.7
2017-07-06T08:47:45.233Z,213.4
2017-07-06T08:48:25.181Z,73.4
2017-07-06T08:49:05.148Z,108.8
2017-07-06T08:49:45.608Z,60.9
2017-07-06T08:50:25.854Z,69.2
2017-07-06T08:51:05.923Z,58.3
2017-07-06T08:51:46.261Z,35.5